Time;durP1;ratioP1;P1;durP2;ratioP2;P2;SDS_P1;SDS_P2;PMS_P1;PMS_P2;Temp;Humidity;BMP_temperature;BMP_pressure;BME280_temperature;BME280_humidity;BME280_pressure;Samples;Min_cycle;Max_cycle;Signal;HPM_P1;HPM_P2
2022/09/16 00:00:26;;;;;;;4.40;0.47;;;11.70;99.90;;;;;;5069863;28;20439;-71
2022/09/16 00:02:52;;;;;;;4.63;0.32;;;11.80;99.90;;;;;;5052000;28;20415;-74
2022/09/16 00:05:19;;;;;;;4.13;0.40;;;11.70;99.90;;;;;;5068455;28;20404;-74
2022/09/16 00:07:45;;;;;;;6.45;0.40;;;11.60;99.90;;;;;;5069308;28;20959;-74
2022/09/16 00:10:12;;;;;;;4.57;0.47;;;11.60;99.90;;;;;;5075103;28;20399;-74
2022/09/16 00:12:38;;;;;;;3.65;0.40;;;11.60;99.90;;;;;;5081345;28;20426;-73
2022/09/16 00:15:04;;;;;;;5.63;0.50;;;11.50;99.90;;;;;;5081553;28;20399;-73
2022/09/16 00:17:30;;;;;;;4.40;0.40;;;11.50;99.90;;;;;;5082056;28;20428;-74
2022/09/16 00:19:57;;;;;;;5.10;0.38;;;11.50;99.90;;;;;;5082701;28;20431;-74
2022/09/16 00:22:23;;;;;;;6.43;0.80;;;11.50;99.90;;;;;;5081039;28;20404;-74
2022/09/16 00:24:49;;;;;;;4.45;0.70;;;11.60;99.90;;;;;;5076648;28;20479;-74
2022/09/16 00:27:15;;;;;;;7.35;0.68;;;11.60;99.90;;;;;;5056953;28;21144;-74
2022/09/16 00:29:41;;;;;;;4.45;0.50;;;11.60;99.90;;;;;;5054716;28;20430;-74
2022/09/16 00:32:06;;;;;;;6.10;0.30;;;11.60;99.90;;;;;;5072225;28;20902;-73
2022/09/16 00:34:32;;;;;;;3.97;0.50;;;11.60;99.90;;;;;;5072490;28;20396;-74
2022/09/16 00:36:58;;;;;;;6.37;1.00;;;11.60;99.90;;;;;;5071909;28;20406;-74
2022/09/16 00:39:23;;;;;;;6.22;0.47;;;11.60;99.90;;;;;;5052281;28;21726;-74
2022/09/16 00:41:49;;;;;;;5.53;0.63;;;11.70;99.90;;;;;;5070065;28;20400;-73
2022/09/16 00:44:52;;;;;;;1.80;0.38;;;11.70;99.90;;;;;;5069980;28;20420;-74
2022/09/16 00:47:42;;;;;;;8.43;1.10;;;11.60;99.90;;;;;;5071451;28;20423;-74
2022/09/16 00:50:28;;;;;;;5.32;0.80;;;11.60;99.90;;;;;;5058768;28;20423;-73
2022/09/16 00:52:55;;;;;;;5.07;0.50;;;11.60;99.90;;;;;;5057153;28;20431;-72
2022/09/16 00:55:28;;;;;;;3.83;0.40;;;11.50;99.90;;;;;;5078144;28;20421;-74
2022/09/16 00:58:01;;;;;;;6.20;0.40;;;11.50;99.90;;;;;;5079944;28;20404;-73
2022/09/16 01:00:27;;;;;;;5.10;0.40;;;11.40;99.90;;;;;;5078299;28;20431;-72
2022/09/16 01:02:53;;;;;;;6.95;0.77;;;11.40;99.90;;;;;;5077940;28;20404;-72
2022/09/16 01:05:22;;;;;;;5.32;0.60;;;11.40;99.90;;;;;;5076724;28;20412;-72
2022/09/16 01:07:50;;;;;;;6.63;0.50;;;11.40;99.90;;;;;;5075855;28;20404;-72
2022/09/16 01:10:18;;;;;;;3.08;0.60;;;11.30;99.90;;;;;;5074199;28;20462;-73
2022/09/16 01:12:48;;;;;;;4.90;0.93;;;11.30;99.90;;;;;;5074605;28;20407;-72
2022/09/16 01:15:15;;;;;;;6.60;1.20;;;11.30;99.90;;;;;;5074143;28;20468;-73
2022/09/16 01:17:50;;;;;;;4.93;0.80;;;11.30;99.90;;;;;;5068653;28;20434;-72
2022/09/16 01:20:42;;;;;;;5.18;0.70;;;11.40;99.90;;;;;;5067842;28;20443;-72
2022/09/16 01:23:38;;;;;;;6.10;0.60;;;11.40;99.90;;;;;;5068320;28;20455;-71
2022/09/16 01:26:06;;;;;;;5.30;0.70;;;11.50;99.90;;;;;;5067665;28;20403;-72
2022/09/16 01:29:14;;;;;;;5.22;0.50;;;11.40;99.90;;;;;;5032817;28;20416;-72
2022/09/16 01:31:50;;;;;;;4.25;0.40;;;11.50;99.90;;;;;;4965880;28;21014;-72
2022/09/16 01:34:35;;;;;;;5.17;0.80;;;11.50;99.90;;;;;;4966394;28;20709;-72
2022/09/16 01:37:22;;;;;;;5.32;0.52;;;11.50;99.90;;;;;;5018968;28;20447;-72
2022/09/16 01:40:15;;;;;;;7.00;0.97;;;11.50;99.90;;;;;;5049399;28;20419;-72
2022/09/16 01:42:52;;;;;;;7.22;0.93;;;11.50;99.90;;;;;;5067184;28;20411;-72
2022/09/16 01:45:20;;;;;;;6.30;0.70;;;11.50;99.90;;;;;;5067879;28;20408;-72
2022/09/16 01:47:46;;;;;;;5.03;1.00;;;11.50;99.90;;;;;;5068108;28;20442;-72
2022/09/16 01:50:29;;;;;;;9.97;0.67;;;11.60;99.90;;;;;;5067869;28;20485;-72
2022/09/16 01:53:20;;;;;;;4.07;0.50;;;11.60;99.90;;;;;;5055671;28;20416;-72
2022/09/16 01:55:56;;;;;;;6.68;1.20;;;11.50;99.90;;;;;;5067731;28;20415;-72
2022/09/16 01:58:24;;;;;;;6.07;0.52;;;11.60;99.90;;;;;;5067489;28;20873;-72
2022/09/16 02:00:54;;;;;;;6.20;0.50;;;11.60;99.90;;;;;;5049548;28;20443;-72
2022/09/16 02:03:32;;;;;;;7.03;0.70;;;11.60;99.90;;;;;;5071290;28;20461;-72
2022/09/16 02:06:04;;;;;;;7.07;0.82;;;11.60;99.90;;;;;;5041733;28;20418;-72
2022/09/16 02:09:04;;;;;;;7.65;0.68;;;11.50;99.90;;;;;;5071308;28;20407;-72
2022/09/16 02:11:30;;;;;;;7.00;0.60;;;11.50;99.90;;;;;;5071242;28;20408;-72
2022/09/16 02:14:05;;;;;;;7.57;0.60;;;11.50;99.90;;;;;;5070978;28;20406;-72
2022/09/16 02:16:40;;;;;;;6.82;0.65;;;11.50;99.90;;;;;;5070964;28;20402;-73
2022/09/16 02:19:11;;;;;;;8.05;1.42;;;11.50;99.90;;;;;;5071537;28;20499;-72
2022/09/16 02:21:39;;;;;;;7.20;0.67;;;11.50;99.90;;;;;;5052645;28;20443;-72
2022/09/16 02:24:09;;;;;;;5.65;0.30;;;11.40;99.90;;;;;;5071826;28;20422;-73
2022/09/16 02:26:39;;;;;;;8.32;1.00;;;11.40;99.90;;;;;;5070712;28;20968;-72
2022/09/16 02:29:14;;;;;;;4.93;0.75;;;11.40;99.90;;;;;;5064738;28;20492;-72
2022/09/16 02:31:43;;;;;;;5.68;0.70;;;11.30;99.90;;;;;;5067091;28;20434;-73
2022/09/16 02:34:18;;;;;;;8.23;0.98;;;11.30;99.90;;;;;;5058276;28;20495;-72
2022/09/16 02:36:48;;;;;;;6.57;0.85;;;11.30;99.90;;;;;;5068327;28;20424;-73
2022/09/16 02:39:21;;;;;;;4.10;0.60;;;11.30;99.90;;;;;;5070879;28;20988;-72
2022/09/16 02:41:47;;;;;;;8.55;0.90;;;11.20;99.90;;;;;;5071057;28;20415;-73
2022/09/16 02:44:13;;;;;;;6.20;0.68;;;11.20;99.90;;;;;;5070919;28;20973;-72
2022/09/16 02:47:00;;;;;;;5.53;0.80;;;11.20;99.90;;;;;;5070155;28;20391;-72
2022/09/16 02:49:39;;;;;;;5.28;0.77;;;11.20;99.90;;;;;;5070720;28;20770;-73
2022/09/16 02:52:29;;;;;;;4.05;0.60;;;11.10;99.90;;;;;;5058182;28;20778;-73
2022/09/16 02:55:20;;;;;;;6.18;0.70;;;11.10;99.90;;;;;;5012859;28;20950;-72
2022/09/16 02:57:45;;;;;;;5.00;0.70;;;11.10;99.90;;;;;;5066414;28;20404;-72
2022/09/16 03:00:11;;;;;;;6.83;0.87;;;11.10;99.90;;;;;;5070349;28;20473;-72
2022/09/16 03:02:38;;;;;;;6.85;0.63;;;11.10;99.90;;;;;;5069743;28;20472;-72
2022/09/16 03:05:04;;;;;;;5.32;0.60;;;11.10;99.90;;;;;;5070577;28;20408;-72
2022/09/16 03:07:30;;;;;;;9.70;0.80;;;11.00;99.90;;;;;;5070489;28;20407;-73
2022/09/16 03:09:56;;;;;;;5.83;0.60;;;11.00;99.90;;;;;;5070093;28;20731;-72
2022/09/16 03:12:40;;;;;;;6.50;1.10;;;11.00;99.90;;;;;;5069117;28;21005;-72
2022/09/16 03:15:20;;;;;;;8.15;0.88;;;10.90;99.90;;;;;;5068998;28;20440;-72
2022/09/16 03:18:14;;;;;;;8.83;0.80;;;10.90;99.90;;;;;;5070068;28;20527;-72
2022/09/16 03:21:00;;;;;;;8.00;0.73;;;10.90;99.90;;;;;;5069670;28;20427;-73
2022/09/16 03:24:01;;;;;;;6.18;0.68;;;10.90;99.90;;;;;;5069687;28;20419;-73
2022/09/16 03:26:39;;;;;;;9.05;0.90;;;10.80;99.90;;;;;;5069043;28;20407;-72
2022/09/16 03:29:47;;;;;;;6.63;0.77;;;10.90;99.90;;;;;;5069498;28;20435;-72
2022/09/16 03:32:26;;;;;;;4.95;0.65;;;10.90;99.90;;;;;;5055692;28;20862;-72
2022/09/16 03:35:09;;;;;;;3.83;0.60;;;10.90;99.90;;;;;;5069354;28;20449;-72
2022/09/16 03:37:38;;;;;;;7.38;0.60;;;10.90;99.90;;;;;;5069106;28;21085;-72
2022/09/16 03:40:09;;;;;;;7.57;0.70;;;10.90;99.90;;;;;;5069362;28;20424;-72
2022/09/16 03:42:38;;;;;;;8.07;1.08;;;10.90;99.90;;;;;;5068578;28;20411;-73
2022/09/16 03:45:05;;;;;;;8.13;1.20;;;10.80;99.90;;;;;;5051752;28;20469;-72
2022/09/16 03:47:31;;;;;;;5.72;0.60;;;10.80;99.90;;;;;;5056747;28;20407;-72
2022/09/16 03:49:56;;;;;;;9.38;0.98;;;10.80;99.90;;;;;;5069575;28;20412;-73
2022/09/16 03:52:22;;;;;;;10.40;1.10;;;10.80;99.90;;;;;;5069359;28;20404;-72
2022/09/16 03:54:48;;;;;;;9.20;0.80;;;10.70;99.90;;;;;;5068899;28;20411;-72
2022/09/16 03:57:13;;;;;;;7.80;1.00;;;10.70;99.90;;;;;;5069488;28;20396;-72
2022/09/16 03:59:40;;;;;;;6.80;0.60;;;10.70;99.90;;;;;;5069086;28;20494;-72
2022/09/16 04:02:05;;;;;;;10.30;1.57;;;10.70;99.90;;;;;;5069503;28;20901;-72
2022/09/16 04:04:31;;;;;;;7.05;0.90;;;10.70;99.90;;;;;;5068963;28;20403;-72
2022/09/16 04:06:56;;;;;;;7.63;0.90;;;10.70;99.90;;;;;;5069171;28;20395;-72
2022/09/16 04:09:22;;;;;;;6.85;0.90;;;10.70;99.90;;;;;;5069080;28;20408;-73
2022/09/16 04:11:47;;;;;;;8.40;1.10;;;10.70;99.90;;;;;;5068610;28;20840;-72
2022/09/16 04:14:13;;;;;;;8.82;1.00;;;10.70;99.90;;;;;;5069215;28;20400;-72
2022/09/16 04:16:39;;;;;;;7.60;0.73;;;10.70;99.90;;;;;;5034515;28;20507;-72
2022/09/16 04:19:05;;;;;;;6.97;0.80;;;10.70;99.90;;;;;;5051276;28;20404;-72
2022/09/16 04:21:31;;;;;;;8.57;0.70;;;10.70;99.90;;;;;;5050858;28;20937;-72
2022/09/16 04:23:57;;;;;;;8.15;1.30;;;10.60;99.90;;;;;;5067734;28;20396;-72
2022/09/16 04:26:23;;;;;;;8.18;1.38;;;10.70;99.90;;;;;;5068694;28;20774;-72
2022/09/16 04:28:52;;;;;;;9.37;0.90;;;10.70;99.90;;;;;;5068755;28;20411;-73
2022/09/16 04:31:17;;;;;;;9.37;0.83;;;10.70;99.90;;;;;;5055590;28;20407;-73
2022/09/16 04:33:43;;;;;;;7.88;1.17;;;10.60;99.90;;;;;;5068097;28;20402;-73
2022/09/16 04:36:14;;;;;;;7.90;0.87;;;10.60;99.90;;;;;;5066751;28;20412;-72
2022/09/16 04:38:42;;;;;;;5.32;0.60;;;10.60;99.90;;;;;;5068374;28;20434;-72
2022/09/16 04:41:12;;;;;;;8.65;0.90;;;10.50;99.90;;;;;;5068261;28;20456;-73
2022/09/16 04:43:38;;;;;;;9.32;0.80;;;10.50;99.90;;;;;;5068327;28;20408;-73
2022/09/16 04:46:04;;;;;;;6.95;0.98;;;10.50;99.90;;;;;;5033820;28;20906;-72
2022/09/16 04:48:30;;;;;;;7.78;0.73;;;10.40;99.90;;;;;;5047718;28;20416;-72
2022/09/16 04:51:08;;;;;;;5.63;0.60;;;10.40;99.90;;;;;;5062288;28;20423;-72
2022/09/16 04:53:35;;;;;;;8.75;0.88;;;10.40;99.90;;;;;;5064200;28;20567;-73
2022/09/16 04:56:05;;;;;;;8.63;1.10;;;10.40;99.90;;;;;;5066450;28;20427;-72
2022/09/16 04:58:31;;;;;;;9.80;1.10;;;10.40;99.90;;;;;;5068026;28;20415;-73
2022/09/16 05:01:03;;;;;;;11.32;1.15;;;10.40;99.90;;;;;;5067729;28;20794;-72
2022/09/16 05:03:29;;;;;;;6.72;0.77;;;10.30;99.90;;;;;;5067813;28;20408;-73
2022/09/16 05:06:03;;;;;;;10.85;1.20;;;10.30;99.90;;;;;;5050522;28;20419;-72
2022/09/16 05:08:29;;;;;;;8.48;0.70;;;10.40;99.90;;;;;;5050338;28;20414;-73
2022/09/16 05:10:54;;;;;;;9.50;1.17;;;10.40;99.90;;;;;;5067465;28;20396;-72
2022/09/16 05:13:22;;;;;;;6.30;0.77;;;10.40;99.90;;;;;;5068208;28;20410;-73
2022/09/16 05:15:47;;;;;;;11.30;1.20;;;10.40;99.90;;;;;;5067461;28;20975;-73
2022/09/16 05:18:13;;;;;;;11.80;0.98;;;10.40;99.90;;;;;;5050270;28;20415;-72
2022/09/16 05:20:39;;;;;;;9.20;0.80;;;10.40;99.90;;;;;;5067532;28;20459;-72
2022/09/16 05:23:04;;;;;;;5.75;1.23;;;10.30;99.90;;;;;;5068236;28;20403;-72
2022/09/16 05:25:30;;;;;;;10.13;0.87;;;10.40;99.90;;;;;;5067151;28;20411;-72
2022/09/16 05:27:56;;;;;;;4.85;0.80;;;10.40;99.90;;;;;;5068236;28;20440;-72
2022/09/16 05:30:21;;;;;;;13.63;1.48;;;10.40;99.90;;;;;;5067816;28;20453;-72
2022/09/16 05:32:53;;;;;;;9.53;0.83;;;10.40;99.90;;;;;;5067396;28;20404;-72
2022/09/16 05:35:18;;;;;;;11.50;1.00;;;10.50;99.90;;;;;;5067491;28;20400;-72
2022/09/16 05:37:44;;;;;;;8.55;0.90;;;10.60;99.90;;;;;;5067915;28;20474;-73
2022/09/16 05:40:09;;;;;;;9.53;1.00;;;10.60;99.90;;;;;;5067527;28;21131;-73
2022/09/16 05:42:35;;;;;;;6.40;0.90;;;10.80;99.90;;;;;;5067568;28;20505;-72
2022/09/16 05:45:01;;;;;;;9.77;0.97;;;10.80;99.90;;;;;;5067661;28;20929;-72
2022/09/16 05:47:26;;;;;;;10.55;1.48;;;10.80;99.90;;;;;;5067822;28;20403;-73
2022/09/16 05:49:53;;;;;;;7.67;0.80;;;10.90;99.90;;;;;;5067340;28;20412;-72
2022/09/16 05:52:19;;;;;;;6.15;0.93;;;10.90;99.90;;;;;;5050211;28;20400;-72
2022/09/16 05:54:44;;;;;;;7.13;0.88;;;10.90;99.90;;;;;;5067584;28;20396;-72
2022/09/16 05:57:10;;;;;;;11.50;0.93;;;10.90;99.90;;;;;;5049767;28;20400;-72
2022/09/16 05:59:36;;;;;;;9.55;0.82;;;10.90;99.90;;;;;;5049970;28;20770;-72
2022/09/16 06:02:01;;;;;;;8.77;1.20;;;11.00;99.90;;;;;;5068139;28;20963;-72
2022/09/16 06:04:27;;;;;;;10.40;0.90;;;11.00;99.90;;;;;;5067925;28;20400;-72
2022/09/16 06:06:52;;;;;;;9.50;1.20;;;11.10;99.90;;;;;;5066423;28;20435;-73
2022/09/16 06:09:21;;;;;;;11.13;1.45;;;11.20;99.90;;;;;;5067390;28;20457;-73
2022/09/16 06:11:49;;;;;;;10.40;1.10;;;11.20;99.90;;;;;;5067578;28;20405;-72
2022/09/16 06:14:17;;;;;;;10.90;0.82;;;11.20;99.90;;;;;;5067333;28;20411;-72
2022/09/16 06:16:43;;;;;;;11.10;1.42;;;11.20;99.90;;;;;;5067350;28;20441;-73
2022/09/16 06:19:16;;;;;;;12.13;1.10;;;11.30;99.90;;;;;;5049538;28;20951;-73
2022/09/16 06:21:43;;;;;;;12.27;1.05;;;11.30;99.90;;;;;;5067115;28;20431;-73
2022/09/16 06:24:09;;;;;;;12.23;1.10;;;11.30;99.90;;;;;;5067729;28;20495;-73
2022/09/16 06:26:37;;;;;;;10.68;1.40;;;11.40;99.90;;;;;;5067693;28;20400;-73
2022/09/16 06:29:05;;;;;;;9.23;1.50;;;11.40;99.90;;;;;;5067338;28;20415;-72
2022/09/16 06:31:31;;;;;;;11.10;1.15;;;11.30;99.90;;;;;;5067474;28;20453;-73
2022/09/16 06:33:57;;;;;;;9.82;1.25;;;11.40;99.90;;;;;;5067007;28;20410;-73
2022/09/16 06:36:35;;;;;;;8.20;1.20;;;11.30;99.90;;;;;;5067560;28;20403;-73
2022/09/16 06:39:01;;;;;;;12.77;0.88;;;11.30;99.90;;;;;;5067113;28;20403;-73
2022/09/16 06:41:27;;;;;;;11.57;1.63;;;11.30;99.90;;;;;;5065982;28;20459;-73
2022/09/16 06:43:53;;;;;;;12.25;1.48;;;11.30;99.90;;;;;;5066835;28;20442;-73
2022/09/16 06:46:24;;;;;;;11.10;1.10;;;11.30;99.90;;;;;;5066803;28;20404;-73
2022/09/16 06:48:52;;;;;;;8.43;1.42;;;11.40;99.90;;;;;;5070093;28;20450;-73
2022/09/16 06:51:30;;;;;;;13.15;1.30;;;11.40;99.90;;;;;;5070921;28;20403;-73
2022/09/16 06:54:00;;;;;;;9.93;1.23;;;11.40;99.90;;;;;;5057653;28;20826;-73
2022/09/16 06:56:26;;;;;;;9.23;0.98;;;11.40;99.90;;;;;;5070252;28;20487;-73
2022/09/16 06:58:54;;;;;;;8.52;1.02;;;11.50;99.90;;;;;;5070592;28;20460;-73
2022/09/16 07:01:23;;;;;;;8.32;1.00;;;11.50;99.90;;;;;;5070711;28;20427;-73
2022/09/16 07:03:50;;;;;;;8.77;0.80;;;11.60;99.90;;;;;;5070512;28;20438;-73
2022/09/16 07:06:17;;;;;;;8.05;0.90;;;11.60;99.90;;;;;;5074249;28;20431;-72
2022/09/16 07:08:43;;;;;;;6.05;0.80;;;11.60;99.90;;;;;;5084948;28;20894;-72
2022/09/16 07:11:13;;;;;;;6.30;0.73;;;11.70;99.90;;;;;;5068074;28;20407;-73
2022/09/16 07:13:40;;;;;;;9.17;0.90;;;11.70;99.90;;;;;;5087451;28;20887;-73
2022/09/16 07:16:09;;;;;;;7.78;0.82;;;11.80;99.90;;;;;;5084809;28;20395;-72
2022/09/16 07:18:34;;;;;;;8.50;0.77;;;11.90;99.90;;;;;;5075359;28;20482;-73
2022/09/16 07:21:05;;;;;;;9.30;1.33;;;12.20;99.90;;;;;;5074140;28;20597;-73
2022/09/16 07:23:32;;;;;;;9.50;1.00;;;12.30;99.90;;;;;;5073909;28;20407;-73
2022/09/16 07:26:03;;;;;;;7.05;0.70;;;12.40;99.90;;;;;;5072660;28;20411;-73
2022/09/16 07:28:30;;;;;;;7.15;1.13;;;12.40;99.90;;;;;;5071147;28;20395;-73
2022/09/16 07:30:58;;;;;;;7.32;1.23;;;12.40;99.90;;;;;;5040310;28;20415;-73
2022/09/16 07:33:24;;;;;;;8.85;1.20;;;12.50;99.90;;;;;;5052191;28;20407;-73
2022/09/16 07:35:57;;;;;;;9.38;1.50;;;12.50;99.90;;;;;;5052545;28;20739;-73
2022/09/16 07:38:23;;;;;;;10.15;1.15;;;12.50;99.90;;;;;;5070697;28;20412;-73
2022/09/16 07:40:48;;;;;;;7.27;0.80;;;12.50;99.90;;;;;;5075113;28;20435;-72
2022/09/16 07:43:14;;;;;;;8.35;1.10;;;12.60;99.90;;;;;;5085238;28;20416;-72
2022/09/16 07:45:40;;;;;;;8.90;1.23;;;12.70;99.90;;;;;;5068596;28;20500;-72
2022/09/16 07:48:05;;;;;;;9.73;0.80;;;12.80;99.90;;;;;;5086965;28;20456;-73
2022/09/16 07:50:31;;;;;;;9.13;1.03;;;12.90;99.90;;;;;;5087081;28;20462;-73
2022/09/16 07:52:57;;;;;;;7.85;1.33;;;13.00;99.90;;;;;;5063239;28;20423;-73
2022/09/16 07:55:22;;;;;;;8.30;1.23;;;13.20;99.90;;;;;;5082080;28;20400;-73
2022/09/16 07:57:48;;;;;;;13.80;1.40;;;13.30;99.90;;;;;;5079039;28;20392;-73
2022/09/16 08:00:15;;;;;;;10.67;1.20;;;13.40;99.90;;;;;;5076898;28;20506;-73
2022/09/16 08:02:41;;;;;;;10.60;1.27;;;13.60;99.90;;;;;;5075747;28;20403;-73
2022/09/16 08:05:08;;;;;;;8.07;1.00;;;13.60;99.90;;;;;;5075017;28;20399;-73
2022/09/16 08:07:34;;;;;;;11.40;1.25;;;13.70;99.90;;;;;;5073228;28;20414;-73
2022/09/16 08:09:59;;;;;;;8.52;0.70;;;13.80;99.90;;;;;;5072933;28;20399;-73
2022/09/16 08:12:25;;;;;;;12.50;1.47;;;13.90;99.90;;;;;;5054569;28;20413;-73
2022/09/16 08:14:51;;;;;;;9.68;1.20;;;14.00;99.90;;;;;;5069578;28;20403;-73
2022/09/16 08:17:16;;;;;;;5.70;0.60;;;14.00;99.90;;;;;;5069406;28;20403;-73
2022/09/16 08:19:42;;;;;;;8.57;1.07;;;14.10;99.90;;;;;;5068690;28;20458;-73
2022/09/16 08:22:07;;;;;;;5.32;0.90;;;14.20;99.90;;;;;;5069435;28;20402;-73
2022/09/16 08:24:33;;;;;;;6.37;0.77;;;14.20;99.90;;;;;;5069378;28;20444;-73
2022/09/16 08:26:59;;;;;;;8.07;0.93;;;14.30;99.90;;;;;;5068894;28;20889;-73
2022/09/16 08:29:24;;;;;;;10.53;0.90;;;14.40;99.90;;;;;;5069090;28;20430;-73
2022/09/16 08:31:50;;;;;;;6.57;0.70;;;14.40;99.90;;;;;;5068428;28;20905;-73
2022/09/16 08:34:16;;;;;;;8.30;0.82;;;14.50;99.90;;;;;;5051108;28;20406;-73
2022/09/16 08:36:42;;;;;;;8.50;0.90;;;14.60;99.90;;;;;;5069012;28;20398;-73
2022/09/16 08:39:09;;;;;;;7.88;0.90;;;14.60;99.90;;;;;;5069201;28;20776;-73
2022/09/16 08:41:54;;;;;;;10.70;0.80;;;14.70;99.90;;;;;;5068536;28;20434;-73
2022/09/16 08:44:32;;;;;;;5.78;0.73;;;14.80;99.90;;;;;;5050136;28;20411;-73
2022/09/16 08:47:01;;;;;;;4.03;0.60;;;14.90;99.90;;;;;;5068651;28;20415;-74
2022/09/16 08:49:47;;;;;;;7.65;0.90;;;15.10;99.90;;;;;;5068731;28;20404;-73
2022/09/16 08:52:32;;;;;;;6.20;0.65;;;15.30;99.90;;;;;;5056611;28;20415;-73
2022/09/16 08:55:10;;;;;;;8.93;0.80;;;15.40;99.90;;;;;;5050373;28;20751;-73
2022/09/16 08:57:42;;;;;;;8.70;0.90;;;15.40;99.90;;;;;;5068591;28;20419;-74
2022/09/16 09:00:14;;;;;;;9.80;1.15;;;15.30;99.90;;;;;;5067915;28;20423;-73
2022/09/16 09:03:06;;;;;;;11.77;1.70;;;15.20;99.90;;;;;;5050448;28;20462;-73
2022/09/16 09:05:44;;;;;;;13.50;1.83;;;15.20;99.90;;;;;;5050667;28;20894;-72
2022/09/16 09:08:28;;;;;;;15.45;1.52;;;15.10;99.90;;;;;;5067939;28;21042;-72
2022/09/16 09:11:05;;;;;;;14.02;1.67;;;14.80;99.90;;;;;;5067544;28;20440;-73
2022/09/16 09:13:37;;;;;;;9.07;1.08;;;14.50;99.90;;;;;;5034063;28;20415;-72
2022/09/16 09:16:34;;;;;;;7.38;0.93;;;14.20;99.90;;;;;;5067380;28;20408;-73
2022/09/16 09:19:18;;;;;;;6.35;0.70;;;14.00;99.90;;;;;;5067597;28;20933;-73
2022/09/16 09:22:21;;;;;;;12.55;0.90;;;14.50;99.90;;;;;;5068252;28;20435;-73
2022/09/16 09:25:20;;;;;;;8.38;0.90;;;15.60;99.90;;;;;;5067453;28;20461;-74
2022/09/16 09:28:02;;;;;;;7.30;0.82;;;16.70;99.90;;;;;;5054713;28;20483;-73
2022/09/16 09:30:28;;;;;;;8.55;1.35;;;16.60;99.90;;;;;;5066912;28;20404;-73
2022/09/16 09:33:33;;;;;;;7.43;0.98;;;16.70;99.90;;;;;;5048944;28;20403;-73
2022/09/16 09:36:11;;;;;;;10.82;1.60;;;17.50;99.90;;;;;;5038027;28;20419;-73
2022/09/16 09:38:45;;;;;;;8.70;1.33;;;18.30;99.90;;;;;;5048949;28;20499;-74
2022/09/16 09:41:33;;;;;;;6.72;1.00;;;18.60;97.80;;;;;;5066713;28;20437;-74
2022/09/16 09:44:35;;;;;;;4.82;0.60;;;18.00;96.20;;;;;;5066908;28;20494;-74
2022/09/16 09:47:09;;;;;;;5.47;0.60;;;17.10;97.00;;;;;;5067661;28;20416;-73
2022/09/16 09:49:41;;;;;;;4.10;0.57;;;16.10;96.70;;;;;;5067897;28;20408;-73
2022/09/16 09:52:12;;;;;;;4.60;0.40;;;15.30;97.60;;;;;;5055387;28;20411;-73
2022/09/16 09:54:40;;;;;;;3.83;0.50;;;14.80;98.00;;;;;;5067379;28;20435;-73
2022/09/16 09:57:21;;;;;;;5.95;0.55;;;14.40;98.10;;;;;;5049952;28;20458;-73
2022/09/16 09:59:59;;;;;;;7.50;1.13;;;14.20;99.00;;;;;;5067681;28;20407;-73
2022/09/16 10:02:25;;;;;;;5.63;0.70;;;14.10;99.60;;;;;;5067880;28;20407;-73
2022/09/16 10:04:51;;;;;;;7.20;1.02;;;14.50;99.90;;;;;;5049099;28;20415;-73
2022/09/16 10:07:21;;;;;;;7.03;1.07;;;15.50;99.90;;;;;;5067954;28;20405;-73
2022/09/16 10:09:54;;;;;;;7.72;0.70;;;16.60;99.90;;;;;;5067198;28;20388;-73
2022/09/16 10:12:32;;;;;;;8.15;1.00;;;17.50;99.30;;;;;;5067371;28;20416;-73
2022/09/16 10:14:59;;;;;;;7.18;0.80;;;18.20;98.50;;;;;;5067318;28;20533;-73
2022/09/16 10:17:26;;;;;;;6.60;0.80;;;18.40;97.30;;;;;;5049255;28;20805;-74
2022/09/16 10:20:05;;;;;;;6.95;0.70;;;18.60;97.30;;;;;;5067500;28;20403;-73
2022/09/16 10:22:33;;;;;;;4.00;0.43;;;18.80;95.90;;;;;;5068112;28;20476;-74
2022/09/16 10:25:01;;;;;;;3.58;0.50;;;18.00;93.50;;;;;;5071031;28;20778;-73
2022/09/16 10:27:35;;;;;;;5.03;0.40;;;17.00;94.60;;;;;;5053034;28;20408;-74
2022/09/16 10:30:15;;;;;;;4.15;0.60;;;16.10;95.80;;;;;;5070233;28;20772;-73
2022/09/16 10:33:06;;;;;;;7.03;0.77;;;15.50;97.00;;;;;;5058360;28;20418;-73
2022/09/16 10:35:34;;;;;;;5.97;0.87;;;15.10;98.20;;;;;;5069811;28;20400;-72
2022/09/16 10:38:03;;;;;;;5.28;0.70;;;15.30;99.50;;;;;;5070620;28;20781;-72
2022/09/16 10:40:30;;;;;;;9.10;1.13;;;16.20;99.90;;;;;;5070621;28;20476;-74
2022/09/16 10:43:02;;;;;;;7.55;1.10;;;17.30;99.50;;;;;;5070912;28;20458;-73
2022/09/16 10:45:35;;;;;;;7.13;0.65;;;18.20;98.20;;;;;;5070241;28;21044;-73
2022/09/16 10:48:06;;;;;;;3.53;0.60;;;18.90;97.50;;;;;;5069564;28;20450;-73
2022/09/16 10:50:32;;;;;;;6.25;0.70;;;18.50;93.30;;;;;;5070065;28;20403;-73
2022/09/16 10:52:57;;;;;;;5.88;0.70;;;18.00;94.00;;;;;;5070489;28;20396;-74
2022/09/16 10:55:27;;;;;;;7.72;0.73;;;18.50;95.60;;;;;;5070272;28;20492;-73
2022/09/16 10:58:05;;;;;;;7.47;1.08;;;19.30;95.00;;;;;;5070020;28;20412;-73
2022/09/16 11:00:49;;;;;;;7.88;0.88;;;19.70;93.20;;;;;;5069185;28;20427;-73
2022/09/16 11:03:23;;;;;;;8.40;0.80;;;19.70;92.30;;;;;;5069848;28;20762;-73
2022/09/16 11:06:25;;;;;;;7.50;0.93;;;19.30;92.00;;;;;;5069636;28;20477;-73
2022/09/16 11:09:27;;;;;;;8.32;1.05;;;19.00;91.60;;;;;;5010864;28;20470;-73
2022/09/16 11:12:12;;;;;;;7.50;0.80;;;19.10;91.10;;;;;;5069064;28;21208;-74
2022/09/16 11:14:44;;;;;;;8.20;1.20;;;19.50;91.60;;;;;;5014597;28;20538;-73
2022/09/16 11:17:45;;;;;;;6.30;1.02;;;19.60;90.10;;;;;;5070068;28;20774;-73
2022/09/16 11:20:25;;;;;;;6.63;0.80;;;19.50;87.40;;;;;;4968972;28;20811;-74
2022/09/16 11:22:57;;;;;;;8.50;1.10;;;19.50;90.00;;;;;;5041636;28;20487;-73
2022/09/16 11:25:37;;;;;;;9.27;1.20;;;19.50;87.70;;;;;;5057606;28;20491;-73
2022/09/16 11:28:39;;;;;;;8.93;1.20;;;19.60;89.20;;;;;;5052306;28;20420;-73
2022/09/16 11:31:11;;;;;;;9.95;1.17;;;19.70;89.40;;;;;;5069700;28;20909;-74
2022/09/16 11:33:42;;;;;;;9.90;1.40;;;20.10;90.30;;;;;;5068099;28;20427;-72
2022/09/16 11:36:33;;;;;;;7.68;1.30;;;20.20;87.20;;;;;;5069734;28;20404;-72
2022/09/16 11:39:20;;;;;;;10.48;1.30;;;20.10;83.20;;;;;;5069416;28;21189;-71
2022/09/16 11:42:01;;;;;;;11.50;1.73;;;19.50;88.00;;;;;;5062018;28;20463;-72
2022/09/16 11:45:01;;;;;;;11.63;2.13;;;19.10;87.70;;;;;;5056967;28;20765;-72
2022/09/16 11:47:55;;;;;;;12.02;1.58;;;18.80;88.70;;;;;;5069163;28;20407;-72
2022/09/16 11:50:21;;;;;;;10.85;1.73;;;18.70;89.30;;;;;;5051903;28;20477;-73
2022/09/16 11:52:52;;;;;;;10.77;1.30;;;18.50;89.10;;;;;;5069553;28;20902;-73
2022/09/16 11:55:37;;;;;;;11.48;1.80;;;18.40;89.20;;;;;;5069678;28;20481;-73
2022/09/16 11:58:19;;;;;;;12.50;1.63;;;18.30;88.80;;;;;;5058938;28;20430;-72
2022/09/16 12:00:46;;;;;;;10.93;1.73;;;18.20;86.80;;;;;;5069355;28;20828;-72
2022/09/16 12:03:25;;;;;;;9.70;1.52;;;18.10;86.20;;;;;;5069211;28;20408;-74
2022/09/16 12:06:02;;;;;;;12.97;1.53;;;17.90;86.50;;;;;;5068915;28;20458;-72
2022/09/16 12:08:43;;;;;;;13.43;2.10;;;17.70;87.80;;;;;;5057075;28;20743;-73
2022/09/16 12:11:32;;;;;;;10.83;1.70;;;17.60;89.20;;;;;;5063691;28;20420;-74
2022/09/16 12:14:09;;;;;;;12.82;1.88;;;17.50;89.60;;;;;;5068774;28;20434;-74
2022/09/16 12:16:42;;;;;;;14.77;1.95;;;17.40;90.00;;;;;;5068441;28;20490;-73
2022/09/16 12:19:21;;;;;;;10.02;1.55;;;17.30;90.20;;;;;;5069162;28;20967;-73
2022/09/16 12:22:14;;;;;;;10.57;1.67;;;17.30;89.60;;;;;;5069070;28;20427;-73
2022/09/16 12:25:06;;;;;;;11.35;1.70;;;17.20;88.60;;;;;;5068572;28;20462;-74
2022/09/16 12:27:58;;;;;;;13.73;2.03;;;17.30;90.20;;;;;;5055508;28;20412;-73
2022/09/16 12:30:30;;;;;;;13.23;1.80;;;17.30;91.10;;;;;;5058561;28;20897;-73
2022/09/16 12:33:26;;;;;;;8.95;1.15;;;17.20;91.30;;;;;;5067943;28;20404;-73
2022/09/16 12:36:04;;;;;;;7.60;1.13;;;17.20;91.90;;;;;;5068316;28;20422;-73
2022/09/16 12:38:30;;;;;;;9.85;1.23;;;17.10;91.70;;;;;;5068642;28;20773;-73
2022/09/16 12:41:20;;;;;;;10.67;1.67;;;16.90;92.20;;;;;;5068025;28;20423;-73
2022/09/16 12:43:46;;;;;;;10.90;1.25;;;16.80;92.60;;;;;;5067791;28;20416;-73
2022/09/16 12:46:11;;;;;;;11.07;1.40;;;16.70;93.30;;;;;;5067355;28;20407;-73
2022/09/16 12:48:46;;;;;;;10.77;1.53;;;16.80;93.50;;;;;;5067573;28;20906;-73
2022/09/16 12:51:24;;;;;;;8.10;1.20;;;17.00;94.10;;;;;;5067742;28;20515;-73
2022/09/16 12:54:08;;;;;;;7.75;0.88;;;17.40;93.60;;;;;;5067516;28;20911;-73
2022/09/16 12:56:58;;;;;;;9.07;0.93;;;18.00;92.90;;;;;;5067024;28;20423;-72
2022/09/16 12:59:45;;;;;;;8.38;0.65;;;18.20;92.10;;;;;;5067414;28;20468;-73
2022/09/16 13:02:16;;;;;;;5.63;0.55;;;18.60;91.20;;;;;;5067493;28;20411;-73
2022/09/16 13:04:51;;;;;;;4.90;0.90;;;18.50;91.70;;;;;;5066926;28;20450;-73
2022/09/16 13:07:26;;;;;;;5.53;0.57;;;18.10;91.80;;;;;;5067164;28;20789;-73
2022/09/16 13:10:00;;;;;;;6.68;0.63;;;17.70;91.90;;;;;;5054469;28;20411;-73
2022/09/16 13:12:27;;;;;;;3.67;0.22;;;17.50;91.20;;;;;;5067511;28;20412;-73
2022/09/16 13:14:56;;;;;;;4.65;0.47;;;17.30;91.30;;;;;;5067202;28;20743;-73